sensor_id;sensor_type;location;lat;lon;timestamp;P1;durP1;ratioP1;P2;durP2;ratioP2
60241;SDS011;46103;52.076;113.488;2023-05-07T00:02:29;8.80;;;3.55;;
60241;SDS011;46103;52.076;113.488;2023-05-07T00:05:34;9.00;;;3.83;;
60241;SDS011;46103;52.076;113.488;2023-05-07T00:08:39;9.57;;;3.85;;
60241;SDS011;46103;52.076;113.488;2023-05-07T00:11:42;6.88;;;3.38;;
60241;SDS011;46103;52.076;113.488;2023-05-07T00:14:46;10.63;;;4.60;;
60241;SDS011;46103;52.076;113.488;2023-05-07T00:17:50;7.28;;;4.40;;
60241;SDS011;46103;52.076;113.488;2023-05-07T00:20:54;8.35;;;4.47;;
60241;SDS011;46103;52.076;113.488;2023-05-07T00:23:59;11.15;;;5.13;;
60241;SDS011;46103;52.076;113.488;2023-05-07T00:27:03;7.68;;;4.13;;
60241;SDS011;46103;52.076;113.488;2023-05-07T00:30:08;8.73;;;4.30;;
60241;SDS011;46103;52.076;113.488;2023-05-07T00:33:14;8.50;;;4.20;;
60241;SDS011;46103;52.076;113.488;2023-05-07T00:36:18;8.20;;;3.97;;
60241;SDS011;46103;52.076;113.488;2023-05-07T00:39:22;9.27;;;4.40;;
60241;SDS011;46103;52.076;113.488;2023-05-07T00:42:26;12.80;;;4.03;;
60241;SDS011;46103;52.076;113.488;2023-05-07T00:45:30;12.77;;;4.68;;
60241;SDS011;46103;52.076;113.488;2023-05-07T00:48:37;9.00;;;4.35;;
60241;SDS011;46103;52.076;113.488;2023-05-07T00:51:42;8.60;;;4.30;;
60241;SDS011;46103;52.076;113.488;2023-05-07T00:54:46;8.70;;;3.60;;
60241;SDS011;46103;52.076;113.488;2023-05-07T00:57:50;6.85;;;3.47;;
60241;SDS011;46103;52.076;113.488;2023-05-07T01:00:55;15.52;;;4.80;;
60241;SDS011;46103;52.076;113.488;2023-05-07T01:04:00;9.48;;;4.82;;
60241;SDS011;46103;52.076;113.488;2023-05-07T01:07:06;10.23;;;4.72;;
60241;SDS011;46103;52.076;113.488;2023-05-07T01:10:10;10.57;;;5.05;;
60241;SDS011;46103;52.076;113.488;2023-05-07T01:13:15;7.10;;;4.28;;
60241;SDS011;46103;52.076;113.488;2023-05-07T01:16:24;7.88;;;4.30;;
60241;SDS011;46103;52.076;113.488;2023-05-07T01:19:29;11.88;;;6.13;;
60241;SDS011;46103;52.076;113.488;2023-05-07T01:22:34;16.30;;;6.57;;
60241;SDS011;46103;52.076;113.488;2023-05-07T01:25:50;14.23;;;5.90;;
60241;SDS011;46103;52.076;113.488;2023-05-07T01:29:00;14.50;;;7.30;;
60241;SDS011;46103;52.076;113.488;2023-05-07T01:32:05;12.25;;;7.25;;
60241;SDS011;46103;52.076;113.488;2023-05-07T01:35:11;12.95;;;7.60;;
60241;SDS011;46103;52.076;113.488;2023-05-07T01:38:19;7.78;;;5.07;;
60241;SDS011;46103;52.076;113.488;2023-05-07T01:41:25;16.88;;;8.35;;
60241;SDS011;46103;52.076;113.488;2023-05-07T01:44:30;14.77;;;7.03;;
60241;SDS011;46103;52.076;113.488;2023-05-07T01:47:34;19.52;;;7.53;;
60241;SDS011;46103;52.076;113.488;2023-05-07T01:50:39;7.47;;;5.20;;
60241;SDS011;46103;52.076;113.488;2023-05-07T01:53:43;10.80;;;5.63;;
60241;SDS011;46103;52.076;113.488;2023-05-07T01:56:49;10.77;;;5.78;;
60241;SDS011;46103;52.076;113.488;2023-05-07T02:03:00;11.75;;;6.45;;
60241;SDS011;46103;52.076;113.488;2023-05-07T02:06:20;12.00;;;6.45;;
60241;SDS011;46103;52.076;113.488;2023-05-07T02:09:26;16.30;;;7.45;;
60241;SDS011;46103;52.076;113.488;2023-05-07T02:12:30;11.00;;;6.13;;
60241;SDS011;46103;52.076;113.488;2023-05-07T02:15:34;12.35;;;7.00;;
60241;SDS011;46103;52.076;113.488;2023-05-07T02:18:38;15.27;;;5.93;;
60241;SDS011;46103;52.076;113.488;2023-05-07T02:21:42;22.80;;;7.75;;
60241;SDS011;46103;52.076;113.488;2023-05-07T02:24:46;11.07;;;6.95;;
60241;SDS011;46103;52.076;113.488;2023-05-07T02:28:04;13.43;;;6.80;;
60241;SDS011;46103;52.076;113.488;2023-05-07T02:31:19;12.07;;;6.88;;
60241;SDS011;46103;52.076;113.488;2023-05-07T02:34:23;10.90;;;5.53;;
60241;SDS011;46103;52.076;113.488;2023-05-07T02:37:27;13.20;;;6.15;;
60241;SDS011;46103;52.076;113.488;2023-05-07T02:40:31;13.27;;;7.30;;
60241;SDS011;46103;52.076;113.488;2023-05-07T02:43:36;15.50;;;6.32;;
60241;SDS011;46103;52.076;113.488;2023-05-07T02:46:40;11.98;;;4.80;;
60241;SDS011;46103;52.076;113.488;2023-05-07T02:49:46;12.48;;;5.22;;
60241;SDS011;46103;52.076;113.488;2023-05-07T02:52:50;8.30;;;4.20;;
60241;SDS011;46103;52.076;113.488;2023-05-07T02:55:55;9.80;;;5.22;;
60241;SDS011;46103;52.076;113.488;2023-05-07T02:59:00;16.88;;;6.15;;
60241;SDS011;46103;52.076;113.488;2023-05-07T03:02:08;29.48;;;6.10;;
60241;SDS011;46103;52.076;113.488;2023-05-07T03:05:12;21.52;;;5.90;;
60241;SDS011;46103;52.076;113.488;2023-05-07T03:08:17;13.38;;;5.80;;
60241;SDS011;46103;52.076;113.488;2023-05-07T03:11:21;22.48;;;6.32;;
60241;SDS011;46103;52.076;113.488;2023-05-07T03:14:25;14.07;;;6.25;;
60241;SDS011;46103;52.076;113.488;2023-05-07T03:17:29;9.73;;;5.57;;
60241;SDS011;46103;52.076;113.488;2023-05-07T03:20:33;9.57;;;5.50;;
60241;SDS011;46103;52.076;113.488;2023-05-07T03:23:37;7.75;;;5.30;;
60241;SDS011;46103;52.076;113.488;2023-05-07T03:26:42;19.90;;;5.28;;
60241;SDS011;46103;52.076;113.488;2023-05-07T03:29:46;8.75;;;5.75;;
60241;SDS011;46103;52.076;113.488;2023-05-07T03:32:50;13.20;;;5.13;;
60241;SDS011;46103;52.076;113.488;2023-05-07T03:35:54;8.68;;;5.45;;
60241;SDS011;46103;52.076;113.488;2023-05-07T03:38:59;8.63;;;5.80;;
60241;SDS011;46103;52.076;113.488;2023-05-07T03:42:11;14.57;;;4.88;;
60241;SDS011;46103;52.076;113.488;2023-05-07T03:45:14;12.50;;;6.88;;
60241;SDS011;46103;52.076;113.488;2023-05-07T03:48:24;15.32;;;5.95;;
60241;SDS011;46103;52.076;113.488;2023-05-07T03:51:31;17.43;;;6.73;;
60241;SDS011;46103;52.076;113.488;2023-05-07T03:54:39;12.25;;;6.13;;
60241;SDS011;46103;52.076;113.488;2023-05-07T03:57:49;13.45;;;5.75;;
60241;SDS011;46103;52.076;113.488;2023-05-07T04:00:54;16.90;;;5.90;;
60241;SDS011;46103;52.076;113.488;2023-05-07T04:04:01;10.60;;;5.72;;
60241;SDS011;46103;52.076;113.488;2023-05-07T04:07:08;10.52;;;4.30;;
60241;SDS011;46103;52.076;113.488;2023-05-07T04:10:17;38.15;;;17.35;;
60241;SDS011;46103;52.076;113.488;2023-05-07T04:13:24;16.83;;;8.55;;
60241;SDS011;46103;52.076;113.488;2023-05-07T04:16:29;18.08;;;8.93;;
60241;SDS011;46103;52.076;113.488;2023-05-07T04:19:33;25.17;;;13.35;;
60241;SDS011;46103;52.076;113.488;2023-05-07T04:22:37;15.02;;;5.60;;
60241;SDS011;46103;52.076;113.488;2023-05-07T04:25:40;27.75;;;6.20;;
60241;SDS011;46103;52.076;113.488;2023-05-07T04:28:52;8.77;;;4.55;;
60241;SDS011;46103;52.076;113.488;2023-05-07T04:31:56;9.35;;;4.22;;
60241;SDS011;46103;52.076;113.488;2023-05-07T04:35:02;11.43;;;4.88;;
60241;SDS011;46103;52.076;113.488;2023-05-07T04:38:06;19.27;;;7.68;;
60241;SDS011;46103;52.076;113.488;2023-05-07T04:41:12;15.38;;;5.13;;
60241;SDS011;46103;52.076;113.488;2023-05-07T04:44:16;11.93;;;4.27;;
60241;SDS011;46103;52.076;113.488;2023-05-07T04:47:22;19.00;;;6.03;;
60241;SDS011;46103;52.076;113.488;2023-05-07T04:50:26;10.38;;;4.78;;
60241;SDS011;46103;52.076;113.488;2023-05-07T04:53:34;5.60;;;4.03;;
60241;SDS011;46103;52.076;113.488;2023-05-07T04:56:38;6.18;;;3.78;;
60241;SDS011;46103;52.076;113.488;2023-05-07T04:59:44;8.05;;;4.32;;
60241;SDS011;46103;52.076;113.488;2023-05-07T05:02:48;9.43;;;4.15;;
60241;SDS011;46103;52.076;113.488;2023-05-07T05:05:55;8.48;;;3.92;;
60241;SDS011;46103;52.076;113.488;2023-05-07T05:09:02;10.45;;;3.92;;
60241;SDS011;46103;52.076;113.488;2023-05-07T05:12:08;10.93;;;4.22;;
60241;SDS011;46103;52.076;113.488;2023-05-07T05:15:13;13.00;;;4.35;;
60241;SDS011;46103;52.076;113.488;2023-05-07T05:18:16;20.20;;;4.13;;
60241;SDS011;46103;52.076;113.488;2023-05-07T05:21:21;13.70;;;3.75;;
60241;SDS011;46103;52.076;113.488;2023-05-07T05:24:28;17.30;;;3.00;;
60241;SDS011;46103;52.076;113.488;2023-05-07T05:27:35;25.00;;;4.03;;
60241;SDS011;46103;52.076;113.488;2023-05-07T05:30:39;15.75;;;2.95;;
60241;SDS011;46103;52.076;113.488;2023-05-07T05:33:43;6.03;;;2.67;;
60241;SDS011;46103;52.076;113.488;2023-05-07T05:36:47;13.60;;;4.57;;
60241;SDS011;46103;52.076;113.488;2023-05-07T05:39:53;19.52;;;3.72;;
60241;SDS011;46103;52.076;113.488;2023-05-07T05:42:59;19.65;;;3.80;;
60241;SDS011;46103;52.076;113.488;2023-05-07T05:46:04;18.67;;;3.72;;
60241;SDS011;46103;52.076;113.488;2023-05-07T05:49:08;26.63;;;5.50;;
60241;SDS011;46103;52.076;113.488;2023-05-07T05:52:13;11.88;;;2.80;;
60241;SDS011;46103;52.076;113.488;2023-05-07T05:55:17;15.43;;;3.50;;
60241;SDS011;46103;52.076;113.488;2023-05-07T05:58:21;7.65;;;2.60;;
60241;SDS011;46103;52.076;113.488;2023-05-07T06:01:30;11.95;;;2.97;;
60241;SDS011;46103;52.076;113.488;2023-05-07T06:04:37;7.65;;;3.05;;
60241;SDS011;46103;52.076;113.488;2023-05-07T06:07:44;14.10;;;3.42;;
60241;SDS011;46103;52.076;113.488;2023-05-07T06:10:48;34.95;;;4.57;;
60241;SDS011;46103;52.076;113.488;2023-05-07T06:13:52;17.35;;;3.25;;
60241;SDS011;46103;52.076;113.488;2023-05-07T06:16:57;10.98;;;3.42;;
60241;SDS011;46103;52.076;113.488;2023-05-07T06:20:01;5.75;;;2.60;;
60241;SDS011;46103;52.076;113.488;2023-05-07T06:23:04;9.57;;;2.78;;
60241;SDS011;46103;52.076;113.488;2023-05-07T06:26:08;7.30;;;2.38;;
60241;SDS011;46103;52.076;113.488;2023-05-07T06:29:15;8.05;;;2.70;;
60241;SDS011;46103;52.076;113.488;2023-05-07T06:32:19;6.68;;;2.30;;
60241;SDS011;46103;52.076;113.488;2023-05-07T06:35:25;6.57;;;2.63;;
60241;SDS011;46103;52.076;113.488;2023-05-07T06:38:28;17.52;;;3.30;;
60241;SDS011;46103;52.076;113.488;2023-05-07T06:41:32;4.13;;;2.03;;
60241;SDS011;46103;52.076;113.488;2023-05-07T06:44:42;18.83;;;3.13;;
60241;SDS011;46103;52.076;113.488;2023-05-07T06:47:48;13.33;;;2.67;;
60241;SDS011;46103;52.076;113.488;2023-05-07T06:50:52;6.72;;;2.38;;
60241;SDS011;46103;52.076;113.488;2023-05-07T06:57:04;23.70;;;3.58;;
60241;SDS011;46103;52.076;113.488;2023-05-07T07:00:08;18.67;;;2.80;;
60241;SDS011;46103;52.076;113.488;2023-05-07T07:03:24;11.80;;;2.15;;
60241;SDS011;46103;52.076;113.488;2023-05-07T07:06:29;12.88;;;2.35;;
60241;SDS011;46103;52.076;113.488;2023-05-07T07:09:37;9.85;;;2.10;;
60241;SDS011;46103;52.076;113.488;2023-05-07T07:12:43;16.80;;;2.95;;
60241;SDS011;46103;52.076;113.488;2023-05-07T07:15:47;21.88;;;4.05;;
60241;SDS011;46103;52.076;113.488;2023-05-07T07:18:52;8.70;;;2.28;;
60241;SDS011;46103;52.076;113.488;2023-05-07T07:21:55;8.80;;;2.10;;
60241;SDS011;46103;52.076;113.488;2023-05-07T07:24:59;14.50;;;2.25;;
60241;SDS011;46103;52.076;113.488;2023-05-07T07:28:04;8.73;;;1.85;;
60241;SDS011;46103;52.076;113.488;2023-05-07T07:31:11;14.52;;;2.83;;
60241;SDS011;46103;52.076;113.488;2023-05-07T07:34:16;20.35;;;2.70;;
60241;SDS011;46103;52.076;113.488;2023-05-07T07:37:19;10.93;;;2.67;;
60241;SDS011;46103;52.076;113.488;2023-05-07T07:40:24;24.25;;;2.28;;
60241;SDS011;46103;52.076;113.488;2023-05-07T07:43:28;10.25;;;1.90;;
60241;SDS011;46103;52.076;113.488;2023-05-07T07:46:32;13.57;;;2.05;;
60241;SDS011;46103;52.076;113.488;2023-05-07T07:49:37;11.35;;;2.25;;
60241;SDS011;46103;52.076;113.488;2023-05-07T07:52:43;7.93;;;2.03;;
60241;SDS011;46103;52.076;113.488;2023-05-07T07:55:49;13.55;;;2.10;;
60241;SDS011;46103;52.076;113.488;2023-05-07T07:59:02;6.25;;;1.42;;
60241;SDS011;46103;52.076;113.488;2023-05-07T08:02:07;5.10;;;1.88;;
60241;SDS011;46103;52.076;113.488;2023-05-07T08:05:11;8.18;;;2.63;;
60241;SDS011;46103;52.076;113.488;2023-05-07T08:08:15;8.38;;;1.77;;
60241;SDS011;46103;52.076;113.488;2023-05-07T08:11:20;6.32;;;1.60;;
60241;SDS011;46103;52.076;113.488;2023-05-07T08:14:25;3.55;;;1.58;;
60241;SDS011;46103;52.076;113.488;2023-05-07T08:17:31;4.50;;;1.63;;
60241;SDS011;46103;52.076;113.488;2023-05-07T08:20:35;4.82;;;1.50;;
60241;SDS011;46103;52.076;113.488;2023-05-07T08:23:46;10.77;;;1.55;;
60241;SDS011;46103;52.076;113.488;2023-05-07T08:26:50;3.60;;;1.33;;
60241;SDS011;46103;52.076;113.488;2023-05-07T08:29:54;3.83;;;1.50;;
60241;SDS011;46103;52.076;113.488;2023-05-07T08:32:57;8.10;;;2.10;;
60241;SDS011;46103;52.076;113.488;2023-05-07T08:36:02;11.25;;;1.92;;
60241;SDS011;46103;52.076;113.488;2023-05-07T08:39:06;13.98;;;1.67;;
60241;SDS011;46103;52.076;113.488;2023-05-07T08:42:10;16.60;;;2.10;;
60241;SDS011;46103;52.076;113.488;2023-05-07T08:45:17;9.43;;;2.08;;
60241;SDS011;46103;52.076;113.488;2023-05-07T08:48:24;12.93;;;2.15;;
60241;SDS011;46103;52.076;113.488;2023-05-07T08:51:38;7.22;;;1.65;;
60241;SDS011;46103;52.076;113.488;2023-05-07T08:54:42;8.57;;;1.52;;
60241;SDS011;46103;52.076;113.488;2023-05-07T08:57:47;6.22;;;1.40;;
60241;SDS011;46103;52.076;113.488;2023-05-07T09:00:51;6.93;;;1.55;;
60241;SDS011;46103;52.076;113.488;2023-05-07T09:03:58;16.52;;;2.42;;
60241;SDS011;46103;52.076;113.488;2023-05-07T09:07:03;7.20;;;1.48;;
60241;SDS011;46103;52.076;113.488;2023-05-07T09:10:13;16.75;;;2.47;;
60241;SDS011;46103;52.076;113.488;2023-05-07T09:13:19;5.20;;;1.73;;
60241;SDS011;46103;52.076;113.488;2023-05-07T09:16:24;5.35;;;1.70;;
60241;SDS011;46103;52.076;113.488;2023-05-07T09:19:29;6.75;;;1.88;;
60241;SDS011;46103;52.076;113.488;2023-05-07T09:22:37;17.20;;;2.28;;
60241;SDS011;46103;52.076;113.488;2023-05-07T09:25:45;6.47;;;1.77;;
60241;SDS011;46103;52.076;113.488;2023-05-07T09:28:55;16.38;;;2.08;;
60241;SDS011;46103;52.076;113.488;2023-05-07T09:32:00;13.60;;;2.22;;
60241;SDS011;46103;52.076;113.488;2023-05-07T09:35:15;32.88;;;2.60;;
60241;SDS011;46103;52.076;113.488;2023-05-07T09:38:25;6.63;;;1.20;;
60241;SDS011;46103;52.076;113.488;2023-05-07T09:41:33;6.35;;;1.38;;
60241;SDS011;46103;52.076;113.488;2023-05-07T09:44:53;7.95;;;1.73;;
60241;SDS011;46103;52.076;113.488;2023-05-07T09:48:00;9.68;;;1.48;;
60241;SDS011;46103;52.076;113.488;2023-05-07T09:51:22;11.35;;;3.42;;
60241;SDS011;46103;52.076;113.488;2023-05-07T09:54:32;11.60;;;2.78;;
60241;SDS011;46103;52.076;113.488;2023-05-07T09:57:37;8.18;;;3.10;;
60241;SDS011;46103;52.076;113.488;2023-05-07T10:00:43;8.07;;;2.83;;
60241;SDS011;46103;52.076;113.488;2023-05-07T10:03:49;4.72;;;1.50;;
60241;SDS011;46103;52.076;113.488;2023-05-07T10:06:54;4.50;;;1.38;;
60241;SDS011;46103;52.076;113.488;2023-05-07T10:10:02;3.45;;;1.83;;
60241;SDS011;46103;52.076;113.488;2023-05-07T10:13:11;3.40;;;1.63;;
60241;SDS011;46103;52.076;113.488;2023-05-07T10:16:20;4.20;;;1.80;;
60241;SDS011;46103;52.076;113.488;2023-05-07T10:19:28;7.55;;;2.20;;
60241;SDS011;46103;52.076;113.488;2023-05-07T10:22:38;5.53;;;1.63;;
60241;SDS011;46103;52.076;113.488;2023-05-07T10:25:47;5.20;;;1.63;;
60241;SDS011;46103;52.076;113.488;2023-05-07T10:29:01;7.72;;;2.42;;
60241;SDS011;46103;52.076;113.488;2023-05-07T10:35:38;5.60;;;1.83;;
60241;SDS011;46103;52.076;113.488;2023-05-07T10:38:47;4.25;;;1.17;;
60241;SDS011;46103;52.076;113.488;2023-05-07T10:41:51;6.75;;;1.60;;
60241;SDS011;46103;52.076;113.488;2023-05-07T10:44:57;10.52;;;3.10;;
60241;SDS011;46103;52.076;113.488;2023-05-07T10:48:11;5.30;;;1.92;;
60241;SDS011;46103;52.076;113.488;2023-05-07T10:51:41;8.60;;;2.45;;
60241;SDS011;46103;52.076;113.488;2023-05-07T10:58:40;12.13;;;2.92;;
60241;SDS011;46103;52.076;113.488;2023-05-07T11:01:54;8.50;;;2.13;;
60241;SDS011;46103;52.076;113.488;2023-05-07T11:05:24;12.05;;;2.00;;
60241;SDS011;46103;52.076;113.488;2023-05-07T11:12:02;4.22;;;1.40;;
60241;SDS011;46103;52.076;113.488;2023-05-07T11:15:34;21.80;;;2.33;;
60241;SDS011;46103;52.076;113.488;2023-05-07T11:18:55;7.57;;;1.70;;
60241;SDS011;46103;52.076;113.488;2023-05-07T11:22:59;5.68;;;1.88;;
60241;SDS011;46103;52.076;113.488;2023-05-07T11:26:06;6.95;;;2.05;;
60241;SDS011;46103;52.076;113.488;2023-05-07T11:29:11;5.63;;;2.08;;
60241;SDS011;46103;52.076;113.488;2023-05-07T11:32:24;9.17;;;2.63;;
60241;SDS011;46103;52.076;113.488;2023-05-07T11:35:35;11.43;;;3.00;;
60241;SDS011;46103;52.076;113.488;2023-05-07T11:38:43;8.82;;;2.72;;
60241;SDS011;46103;52.076;113.488;2023-05-07T11:41:46;11.30;;;3.28;;
60241;SDS011;46103;52.076;113.488;2023-05-07T11:44:51;5.80;;;2.03;;
60241;SDS011;46103;52.076;113.488;2023-05-07T11:47:55;12.75;;;3.47;;
60241;SDS011;46103;52.076;113.488;2023-05-07T11:54:03;13.10;;;4.32;;
60241;SDS011;46103;52.076;113.488;2023-05-07T12:00:17;8.43;;;2.57;;
60241;SDS011;46103;52.076;113.488;2023-05-07T12:03:20;11.45;;;2.40;;
60241;SDS011;46103;52.076;113.488;2023-05-07T12:06:24;9.27;;;2.78;;
60241;SDS011;46103;52.076;113.488;2023-05-07T12:09:28;9.70;;;3.00;;
60241;SDS011;46103;52.076;113.488;2023-05-07T12:12:31;7.00;;;3.00;;
60241;SDS011;46103;52.076;113.488;2023-05-07T12:15:51;13.52;;;3.67;;
60241;SDS011;46103;52.076;113.488;2023-05-07T12:19:21;10.23;;;3.47;;
60241;SDS011;46103;52.076;113.488;2023-05-07T12:22:24;13.85;;;5.03;;
60241;SDS011;46103;52.076;113.488;2023-05-07T12:25:34;12.13;;;4.55;;
60241;SDS011;46103;52.076;113.488;2023-05-07T12:28:38;6.85;;;3.35;;
60241;SDS011;46103;52.076;113.488;2023-05-07T12:31:42;9.07;;;3.22;;
60241;SDS011;46103;52.076;113.488;2023-05-07T12:34:46;11.52;;;4.53;;
60241;SDS011;46103;52.076;113.488;2023-05-07T12:37:54;12.77;;;5.00;;
60241;SDS011;46103;52.076;113.488;2023-05-07T12:40:59;16.00;;;6.18;;
60241;SDS011;46103;52.076;113.488;2023-05-07T12:44:04;15.70;;;5.40;;
60241;SDS011;46103;52.076;113.488;2023-05-07T12:47:07;10.82;;;4.40;;
60241;SDS011;46103;52.076;113.488;2023-05-07T12:50:11;12.40;;;5.05;;
60241;SDS011;46103;52.076;113.488;2023-05-07T12:53:14;14.18;;;4.97;;
60241;SDS011;46103;52.076;113.488;2023-05-07T12:56:18;12.38;;;4.80;;
60241;SDS011;46103;52.076;113.488;2023-05-07T12:59:30;12.48;;;5.32;;
60241;SDS011;46103;52.076;113.488;2023-05-07T13:02:40;12.00;;;4.63;;
60241;SDS011;46103;52.076;113.488;2023-05-07T13:05:46;8.75;;;3.83;;
60241;SDS011;46103;52.076;113.488;2023-05-07T13:08:49;10.50;;;3.50;;
60241;SDS011;46103;52.076;113.488;2023-05-07T13:11:53;9.70;;;3.92;;
60241;SDS011;46103;52.076;113.488;2023-05-07T13:14:56;7.60;;;3.38;;
60241;SDS011;46103;52.076;113.488;2023-05-07T13:18:00;5.03;;;2.85;;
60241;SDS011;46103;52.076;113.488;2023-05-07T13:21:03;4.10;;;1.70;;
60241;SDS011;46103;52.076;113.488;2023-05-07T13:24:07;6.00;;;2.22;;
60241;SDS011;46103;52.076;113.488;2023-05-07T13:27:10;5.32;;;2.08;;
60241;SDS011;46103;52.076;113.488;2023-05-07T13:30:14;2.75;;;1.13;;
60241;SDS011;46103;52.076;113.488;2023-05-07T13:33:18;4.97;;;2.17;;
60241;SDS011;46103;52.076;113.488;2023-05-07T13:36:21;3.28;;;1.70;;
60241;SDS011;46103;52.076;113.488;2023-05-07T13:39:25;4.28;;;1.73;;
60241;SDS011;46103;52.076;113.488;2023-05-07T13:42:28;3.17;;;1.30;;
60241;SDS011;46103;52.076;113.488;2023-05-07T13:45:31;4.45;;;1.67;;
60241;SDS011;46103;52.076;113.488;2023-05-07T13:48:35;2.88;;;1.08;;
60241;SDS011;46103;52.076;113.488;2023-05-07T13:51:38;4.75;;;1.20;;
60241;SDS011;46103;52.076;113.488;2023-05-07T13:54:42;3.20;;;1.15;;
60241;SDS011;46103;52.076;113.488;2023-05-07T13:57:46;3.13;;;1.27;;
60241;SDS011;46103;52.076;113.488;2023-05-07T14:00:49;4.30;;;1.58;;
60241;SDS011;46103;52.076;113.488;2023-05-07T14:03:52;5.43;;;2.10;;
60241;SDS011;46103;52.076;113.488;2023-05-07T14:06:55;4.70;;;1.92;;
60241;SDS011;46103;52.076;113.488;2023-05-07T14:09:58;5.72;;;2.25;;
60241;SDS011;46103;52.076;113.488;2023-05-07T14:13:03;5.80;;;2.28;;
60241;SDS011;46103;52.076;113.488;2023-05-07T14:16:07;6.13;;;2.83;;
60241;SDS011;46103;52.076;113.488;2023-05-07T14:19:11;7.38;;;2.40;;
60241;SDS011;46103;52.076;113.488;2023-05-07T14:22:15;7.57;;;2.72;;
60241;SDS011;46103;52.076;113.488;2023-05-07T14:25:19;8.80;;;2.67;;
60241;SDS011;46103;52.076;113.488;2023-05-07T14:28:25;6.85;;;2.25;;
60241;SDS011;46103;52.076;113.488;2023-05-07T14:31:28;7.32;;;2.67;;
60241;SDS011;46103;52.076;113.488;2023-05-07T14:34:32;8.63;;;3.00;;
60241;SDS011;46103;52.076;113.488;2023-05-07T14:37:35;7.15;;;2.28;;
60241;SDS011;46103;52.076;113.488;2023-05-07T14:40:38;7.30;;;2.45;;
60241;SDS011;46103;52.076;113.488;2023-05-07T14:43:41;8.60;;;2.50;;
60241;SDS011;46103;52.076;113.488;2023-05-07T14:46:45;6.82;;;2.45;;
60241;SDS011;46103;52.076;113.488;2023-05-07T14:49:48;5.53;;;2.33;;
60241;SDS011;46103;52.076;113.488;2023-05-07T14:52:51;5.90;;;2.17;;
60241;SDS011;46103;52.076;113.488;2023-05-07T14:55:54;10.45;;;3.25;;
60241;SDS011;46103;52.076;113.488;2023-05-07T14:58:57;11.35;;;3.38;;
60241;SDS011;46103;52.076;113.488;2023-05-07T15:02:03;7.07;;;3.00;;
60241;SDS011;46103;52.076;113.488;2023-05-07T15:05:08;6.22;;;2.58;;
60241;SDS011;46103;52.076;113.488;2023-05-07T15:08:13;7.35;;;2.55;;
60241;SDS011;46103;52.076;113.488;2023-05-07T15:11:17;8.45;;;2.80;;
60241;SDS011;46103;52.076;113.488;2023-05-07T15:14:20;8.63;;;3.50;;
60241;SDS011;46103;52.076;113.488;2023-05-07T15:17:25;9.07;;;3.50;;
60241;SDS011;46103;52.076;113.488;2023-05-07T15:20:29;4.90;;;2.20;;
60241;SDS011;46103;52.076;113.488;2023-05-07T15:23:32;5.38;;;1.90;;
60241;SDS011;46103;52.076;113.488;2023-05-07T15:26:35;7.45;;;2.33;;
60241;SDS011;46103;52.076;113.488;2023-05-07T15:29:39;9.25;;;2.30;;
60241;SDS011;46103;52.076;113.488;2023-05-07T15:32:42;4.25;;;1.65;;
60241;SDS011;46103;52.076;113.488;2023-05-07T15:35:47;7.20;;;2.00;;
60241;SDS011;46103;52.076;113.488;2023-05-07T15:38:50;5.22;;;2.25;;
60241;SDS011;46103;52.076;113.488;2023-05-07T15:41:56;6.82;;;2.28;;
60241;SDS011;46103;52.076;113.488;2023-05-07T15:44:59;7.43;;;3.10;;
60241;SDS011;46103;52.076;113.488;2023-05-07T15:48:04;10.05;;;3.90;;
60241;SDS011;46103;52.076;113.488;2023-05-07T15:51:08;4.65;;;1.83;;
60241;SDS011;46103;52.076;113.488;2023-05-07T15:54:12;9.88;;;3.42;;
60241;SDS011;46103;52.076;113.488;2023-05-07T15:57:16;3.55;;;1.60;;
60241;SDS011;46103;52.076;113.488;2023-05-07T16:00:19;10.20;;;3.33;;
60241;SDS011;46103;52.076;113.488;2023-05-07T16:03:23;12.48;;;4.38;;
60241;SDS011;46103;52.076;113.488;2023-05-07T16:06:28;15.18;;;6.07;;
60241;SDS011;46103;52.076;113.488;2023-05-07T16:09:32;25.25;;;8.13;;
60241;SDS011;46103;52.076;113.488;2023-05-07T16:12:36;16.00;;;5.25;;
60241;SDS011;46103;52.076;113.488;2023-05-07T16:15:39;12.68;;;4.35;;
60241;SDS011;46103;52.076;113.488;2023-05-07T16:18:43;24.40;;;8.55;;
60241;SDS011;46103;52.076;113.488;2023-05-07T16:21:47;15.07;;;4.93;;
60241;SDS011;46103;52.076;113.488;2023-05-07T16:24:51;16.80;;;5.72;;
60241;SDS011;46103;52.076;113.488;2023-05-07T16:27:54;12.63;;;4.22;;
60241;SDS011;46103;52.076;113.488;2023-05-07T16:30:58;19.45;;;6.25;;
60241;SDS011;46103;52.076;113.488;2023-05-07T16:34:03;26.33;;;9.10;;
60241;SDS011;46103;52.076;113.488;2023-05-07T16:37:07;23.27;;;7.32;;
60241;SDS011;46103;52.076;113.488;2023-05-07T16:40:10;15.68;;;4.47;;
60241;SDS011;46103;52.076;113.488;2023-05-07T16:43:15;16.38;;;5.97;;
60241;SDS011;46103;52.076;113.488;2023-05-07T16:46:19;14.07;;;4.72;;
60241;SDS011;46103;52.076;113.488;2023-05-07T16:49:24;12.50;;;3.47;;
60241;SDS011;46103;52.076;113.488;2023-05-07T16:52:28;12.75;;;4.72;;
60241;SDS011;46103;52.076;113.488;2023-05-07T16:55:32;15.20;;;4.88;;
60241;SDS011;46103;52.076;113.488;2023-05-07T16:58:41;15.23;;;4.07;;
60241;SDS011;46103;52.076;113.488;2023-05-07T17:01:44;12.48;;;3.88;;
60241;SDS011;46103;52.076;113.488;2023-05-07T17:04:48;11.30;;;4.05;;
60241;SDS011;46103;52.076;113.488;2023-05-07T17:07:52;12.15;;;3.95;;
60241;SDS011;46103;52.076;113.488;2023-05-07T17:10:57;11.27;;;4.30;;
60241;SDS011;46103;52.076;113.488;2023-05-07T17:14:00;5.80;;;2.05;;
60241;SDS011;46103;52.076;113.488;2023-05-07T17:17:07;12.15;;;4.40;;
60241;SDS011;46103;52.076;113.488;2023-05-07T17:20:11;11.25;;;4.03;;
60241;SDS011;46103;52.076;113.488;2023-05-07T17:23:15;12.63;;;3.97;;
60241;SDS011;46103;52.076;113.488;2023-05-07T17:26:20;10.40;;;3.92;;
60241;SDS011;46103;52.076;113.488;2023-05-07T17:29:24;9.57;;;3.85;;
60241;SDS011;46103;52.076;113.488;2023-05-07T17:32:27;14.85;;;4.97;;
60241;SDS011;46103;52.076;113.488;2023-05-07T17:35:31;13.40;;;5.43;;
60241;SDS011;46103;52.076;113.488;2023-05-07T17:38:36;12.88;;;4.88;;
60241;SDS011;46103;52.076;113.488;2023-05-07T17:41:39;11.55;;;4.85;;
60241;SDS011;46103;52.076;113.488;2023-05-07T17:44:43;16.25;;;6.20;;
60241;SDS011;46103;52.076;113.488;2023-05-07T17:47:47;11.25;;;5.30;;
60241;SDS011;46103;52.076;113.488;2023-05-07T17:50:50;13.85;;;4.93;;
60241;SDS011;46103;52.076;113.488;2023-05-07T17:53:54;14.90;;;4.90;;
60241;SDS011;46103;52.076;113.488;2023-05-07T17:56:59;14.93;;;4.75;;
60241;SDS011;46103;52.076;113.488;2023-05-07T18:00:03;12.10;;;4.43;;
60241;SDS011;46103;52.076;113.488;2023-05-07T18:03:09;14.73;;;5.35;;
60241;SDS011;46103;52.076;113.488;2023-05-07T18:06:13;11.15;;;4.18;;
60241;SDS011;46103;52.076;113.488;2023-05-07T18:12:24;10.30;;;3.70;;
60241;SDS011;46103;52.076;113.488;2023-05-07T18:15:29;10.18;;;3.95;;
60241;SDS011;46103;52.076;113.488;2023-05-07T18:18:33;6.00;;;2.20;;
60241;SDS011;46103;52.076;113.488;2023-05-07T18:21:37;10.32;;;2.90;;
60241;SDS011;46103;52.076;113.488;2023-05-07T18:24:41;6.70;;;2.40;;